Cerqueira Cesar, Brazil
Current Conditions -  °F | °C
As of 10:00 PM on Sunday 23 Nov 2014 (Local Time) from SBBU Reporting Station
Clear Clear  
Wind Chill: 77°   Ceiling: Unl
Heat Index: 78°   Visibility: 6mi
Dew Point: 72°   Wind: 9mph
Humidity: 83%   Direction: 130°SE
Pressure: 29.94"   Gusts: NA
Location:  23.05°S, 49.17°W
Report Text: SBBU 240000Z 13008KT CAVOK 25/22 Q1014
Loading
Personal Weather Stations






























Interactive Weather Map New forecast layout! Learn more

10-Day Weather Forecast

Advertisements
Track Severe Weather on mobile